To NAV CANADA Home Page Login to a new session Search on AWWS site Feedback and Comments Disclaimer Vers la page française équivalente Tips FAQ What's new on the site To the Forecasts and Observations / NOTAM section To "File a Flight Plan" website Publications and other links Update of the User's profile FIC Telephone Numbers My Weather Data Folder Route Weather Data Regional Weather Data Local Weather Data To the Forecasts and Observations / NOTAM section
Request Generated 04/23/2014 at 19:42:56 UTC . Weather information available at that time is displayed.

METAR/TAF

KINDERSLEY/KINDERSLEY REGIONAL/SK    

METAR CYKY 231900Z CCA 11008KT 15SM -RA OVC012 08/07 A2938 RMK SC8
SLP957 DENSITY ALT 2500FT=
METAR CYKY 231900Z 11008KT 15SM -RA OVC030 08/07 A2938 RMK SC8 SLP957
DENSITY ALT 2500FT=
METAR CYKY 231800Z 14011KT 12SM -RA OVC030 06/06 A2938 RMK SC8 SLP957
DENSITY ALT 2400FT=
METAR CYKY 231700Z 13017G24KT 15SM -RA OVC030 06/05 A2937 RMK SC8
SLP956 DENSITY ALT 2300FT=

CYKY - No TAF is issued for this station

Your time UTC time
Weather data provided by Environment Canada and NAV CANADA